sensor_id;sensor_type;location;lat;lon;timestamp;pressure;altitude;pressure_sealevel;temperature;humidity
55066;BME280;40964;42.114;24.220;2023-01-01T00:01:30;99271.06;;;5.61;90.10
55066;BME280;40964;42.114;24.220;2023-01-01T00:03:58;99265.47;;;5.56;90.32
55066;BME280;40964;42.114;24.220;2023-01-01T00:06:24;99272.78;;;5.53;90.74
55066;BME280;40964;42.114;24.220;2023-01-01T00:08:50;99259.72;;;5.53;91.27
55066;BME280;40964;42.114;24.220;2023-01-01T00:11:39;99266.00;;;5.60;91.37
55066;BME280;40964;42.114;24.220;2023-01-01T00:14:04;99266.00;;;5.60;91.15
55066;BME280;40964;42.114;24.220;2023-01-01T00:16:30;99269.59;;;5.59;90.95
55066;BME280;40964;42.114;24.220;2023-01-01T00:18:56;99272.25;;;5.49;90.84
55066;BME280;40964;42.114;24.220;2023-01-01T00:21:21;99276.69;;;5.39;90.33
55066;BME280;40964;42.114;24.220;2023-01-01T00:23:47;99278.94;;;5.34;90.41
55066;BME280;40964;42.114;24.220;2023-01-01T00:26:14;99274.28;;;5.28;90.48
55066;BME280;40964;42.114;24.220;2023-01-01T00:28:41;99263.25;;;5.16;90.72
55066;BME280;40964;42.114;24.220;2023-01-01T00:31:08;99283.16;;;5.17;91.63
55066;BME280;40964;42.114;24.220;2023-01-01T00:33:33;99283.16;;;5.17;91.63
55066;BME280;40964;42.114;24.220;2023-01-01T00:38:32;99268.31;;;5.18;92.96
55066;BME280;40964;42.114;24.220;2023-01-01T00:40:58;99281.75;;;5.23;92.86
55066;BME280;40964;42.114;24.220;2023-01-01T00:43:23;99278.06;;;5.16;93.52
55066;BME280;40964;42.114;24.220;2023-01-01T00:45:48;99258.91;;;5.07;93.78
55066;BME280;40964;42.114;24.220;2023-01-01T00:48:17;99280.03;;;5.13;93.41
55066;BME280;40964;42.114;24.220;2023-01-01T00:50:43;99277.69;;;5.10;93.66
55066;BME280;40964;42.114;24.220;2023-01-01T00:53:09;99284.25;;;5.15;94.12
55066;BME280;40964;42.114;24.220;2023-01-01T00:55:34;99291.53;;;5.11;93.82
55066;BME280;40964;42.114;24.220;2023-01-01T00:58:00;99273.19;;;5.03;92.87
55066;BME280;40964;42.114;24.220;2023-01-01T01:00:25;99289.28;;;4.98;92.53
55066;BME280;40964;42.114;24.220;2023-01-01T01:02:51;99299.59;;;4.90;93.41
55066;BME280;40964;42.114;24.220;2023-01-01T01:05:18;99295.50;;;4.88;93.08
55066;BME280;40964;42.114;24.220;2023-01-01T01:07:43;99298.38;;;4.84;93.22
55066;BME280;40964;42.114;24.220;2023-01-01T01:10:09;99284.69;;;4.73;93.73
55066;BME280;40964;42.114;24.220;2023-01-01T01:12:36;99295.00;;;4.65;94.24
55066;BME280;40964;42.114;24.220;2023-01-01T01:15:03;99295.44;;;4.60;95.21
55066;BME280;40964;42.114;24.220;2023-01-01T01:17:28;99301.84;;;4.66;95.39
55066;BME280;40964;42.114;24.220;2023-01-01T01:19:54;99294.88;;;4.66;95.35
55066;BME280;40964;42.114;24.220;2023-01-01T01:22:20;99289.53;;;4.68;95.56
55066;BME280;40964;42.114;24.220;2023-01-01T01:24:45;99294.84;;;4.76;95.84
55066;BME280;40964;42.114;24.220;2023-01-01T01:27:10;99293.34;;;4.73;94.94
55066;BME280;40964;42.114;24.220;2023-01-01T01:29:36;99298.41;;;4.75;94.97
55066;BME280;40964;42.114;24.220;2023-01-01T01:32:02;99290.47;;;4.76;94.94
55066;BME280;40964;42.114;24.220;2023-01-01T01:34:27;99281.41;;;4.71;95.29
55066;BME280;40964;42.114;24.220;2023-01-01T01:36:53;99273.03;;;4.77;95.70
55066;BME280;40964;42.114;24.220;2023-01-01T01:39:18;99261.81;;;4.76;96.79
55066;BME280;40964;42.114;24.220;2023-01-01T01:41:44;99262.22;;;4.72;96.76
55066;BME280;40964;42.114;24.220;2023-01-01T01:50:05;99250.00;;;4.72;96.67
55066;BME280;40964;42.114;24.220;2023-01-01T01:52:35;99256.47;;;4.68;96.40
55066;BME280;40964;42.114;24.220;2023-01-01T01:55:04;99239.94;;;4.50;95.84
55066;BME280;40964;42.114;24.220;2023-01-01T01:57:32;99258.00;;;4.61;96.24
55066;BME280;40964;42.114;24.220;2023-01-01T01:59:58;99248.81;;;4.57;96.58
55066;BME280;40964;42.114;24.220;2023-01-01T02:04:58;99267.09;;;4.47;96.61
55066;BME280;40964;42.114;24.220;2023-01-01T02:07:25;99265.63;;;4.25;96.74
55066;BME280;40964;42.114;24.220;2023-01-01T02:09:52;99269.88;;;4.26;96.56
55066;BME280;40964;42.114;24.220;2023-01-01T02:12:18;99274.38;;;4.34;96.84
55066;BME280;40964;42.114;24.220;2023-01-01T02:14:43;99269.84;;;4.36;96.37
55066;BME280;40964;42.114;24.220;2023-01-01T02:17:14;99255.22;;;4.25;96.61
55066;BME280;40964;42.114;24.220;2023-01-01T02:20:02;99263.69;;;4.37;97.97
55066;BME280;40964;42.114;24.220;2023-01-01T02:30:29;99263.13;;;4.43;99.03
55066;BME280;40964;42.114;24.220;2023-01-01T02:33:05;99258.19;;;4.50;99.08
55066;BME280;40964;42.114;24.220;2023-01-01T02:35:55;99260.88;;;4.58;98.72
55066;BME280;40964;42.114;24.220;2023-01-01T02:38:44;99266.53;;;4.53;97.98
55066;BME280;40964;42.114;24.220;2023-01-01T02:41:49;99263.09;;;4.53;97.07
55066;BME280;40964;42.114;24.220;2023-01-01T02:44:18;99266.41;;;4.45;97.41
55066;BME280;40964;42.114;24.220;2023-01-01T02:46:46;99268.34;;;4.43;96.96
55066;BME280;40964;42.114;24.220;2023-01-01T02:49:11;99268.47;;;4.42;97.13
55066;BME280;40964;42.114;24.220;2023-01-01T03:02:48;99283.72;;;4.17;98.40
55066;BME280;40964;42.114;24.220;2023-01-01T03:08:09;99281.66;;;4.21;98.82
55066;BME280;40964;42.114;24.220;2023-01-01T03:16:12;99283.84;;;4.35;99.02
55066;BME280;40964;42.114;24.220;2023-01-01T03:19:11;99286.16;;;4.38;98.80
55066;BME280;40964;42.114;24.220;2023-01-01T03:24:48;99277.13;;;4.42;98.96
55066;BME280;40964;42.114;24.220;2023-01-01T03:27:18;99256.69;;;4.38;98.67
55066;BME280;40964;42.114;24.220;2023-01-01T03:29:47;99267.09;;;4.47;98.60
55066;BME280;40964;42.114;24.220;2023-01-01T03:32:21;99263.91;;;4.53;99.15
55066;BME280;40964;42.114;24.220;2023-01-01T03:34:53;99266.00;;;4.50;99.06
55066;BME280;40964;42.114;24.220;2023-01-01T03:37:25;99266.00;;;4.50;98.34
55066;BME280;40964;42.114;24.220;2023-01-01T03:39:56;99270.25;;;4.51;98.25
55066;BME280;40964;42.114;24.220;2023-01-01T03:42:30;99265.28;;;4.48;97.48
55066;BME280;40964;42.114;24.220;2023-01-01T03:45:09;99269.41;;;4.50;97.90
55066;BME280;40964;42.114;24.220;2023-01-01T03:47:36;99262.97;;;4.45;97.62
55066;BME280;40964;42.114;24.220;2023-01-01T03:50:02;99273.28;;;4.37;96.78
55066;BME280;40964;42.114;24.220;2023-01-01T03:57:48;99283.16;;;4.33;98.68
55066;BME280;40964;42.114;24.220;2023-01-01T04:00:23;99256.84;;;4.36;98.96
55066;BME280;40964;42.114;24.220;2023-01-01T04:02:58;99287.66;;;4.50;98.46
55066;BME280;40964;42.114;24.220;2023-01-01T04:05:26;99279.97;;;4.59;98.54
55066;BME280;40964;42.114;24.220;2023-01-01T04:07:53;99268.00;;;4.56;97.72
55066;BME280;40964;42.114;24.220;2023-01-01T04:10:19;99261.97;;;4.55;97.57
55066;BME280;40964;42.114;24.220;2023-01-01T04:12:50;99283.75;;;4.64;97.08
55066;BME280;40964;42.114;24.220;2023-01-01T04:15:17;99260.06;;;4.57;96.49
55066;BME280;40964;42.114;24.220;2023-01-01T04:17:43;99279.13;;;4.68;96.35
55066;BME280;40964;42.114;24.220;2023-01-01T04:20:09;99267.16;;;4.65;95.80
55066;BME280;40964;42.114;24.220;2023-01-01T04:22:35;99269.50;;;4.68;95.69
55066;BME280;40964;42.114;24.220;2023-01-01T04:25:01;99271.19;;;4.60;95.33
55066;BME280;40964;42.114;24.220;2023-01-01T04:27:26;99271.41;;;4.66;95.87
55066;BME280;40964;42.114;24.220;2023-01-01T04:29:52;99263.88;;;4.63;95.01
55066;BME280;40964;42.114;24.220;2023-01-01T04:32:17;99272.97;;;4.59;94.75
55066;BME280;40964;42.114;24.220;2023-01-01T04:34:43;99279.81;;;4.60;95.34
55066;BME280;40964;42.114;24.220;2023-01-01T04:37:08;99288.97;;;4.64;95.30
55066;BME280;40964;42.114;24.220;2023-01-01T04:39:34;99281.97;;;4.65;94.85
55066;BME280;40964;42.114;24.220;2023-01-01T04:41:59;99279.97;;;4.59;94.82
55066;BME280;40964;42.114;24.220;2023-01-01T04:44:25;99274.06;;;4.47;94.96
55066;BME280;40964;42.114;24.220;2023-01-01T04:46:50;99275.72;;;4.48;94.97
55066;BME280;40964;42.114;24.220;2023-01-01T04:49:16;99273.25;;;4.46;95.16
55066;BME280;40964;42.114;24.220;2023-01-01T04:51:41;99283.53;;;4.48;95.72
55066;BME280;40964;42.114;24.220;2023-01-01T04:54:07;99277.66;;;4.46;95.49
55066;BME280;40964;42.114;24.220;2023-01-01T04:56:32;99292.16;;;4.48;95.34
55066;BME280;40964;42.114;24.220;2023-01-01T04:58:58;99291.78;;;4.43;96.13
55066;BME280;40964;42.114;24.220;2023-01-01T05:01:27;99287.25;;;4.36;96.14
55066;BME280;40964;42.114;24.220;2023-01-01T05:03:54;99296.19;;;4.33;96.21
55066;BME280;40964;42.114;24.220;2023-01-01T05:06:20;99297.41;;;4.29;95.75
55066;BME280;40964;42.114;24.220;2023-01-01T05:08:47;99294.94;;;4.27;95.81
55066;BME280;40964;42.114;24.220;2023-01-01T05:11:17;99297.69;;;4.26;96.39
55066;BME280;40964;42.114;24.220;2023-01-01T05:13:45;99294.13;;;4.27;97.22
55066;BME280;40964;42.114;24.220;2023-01-01T05:16:13;99296.34;;;4.32;97.44
55066;BME280;40964;42.114;24.220;2023-01-01T05:18:39;99283.31;;;4.32;97.39
55066;BME280;40964;42.114;24.220;2023-01-01T05:21:07;99298.66;;;4.35;98.00
55066;BME280;40964;42.114;24.220;2023-01-01T05:23:33;99291.94;;;4.32;97.60
55066;BME280;40964;42.114;24.220;2023-01-01T05:25:59;99298.78;;;4.33;97.57
55066;BME280;40964;42.114;24.220;2023-01-01T05:28:32;99297.00;;;4.34;97.71
55066;BME280;40964;42.114;24.220;2023-01-01T05:30:57;99298.22;;;4.39;98.18
55066;BME280;40964;42.114;24.220;2023-01-01T05:33:22;99303.41;;;4.39;98.41
55066;BME280;40964;42.114;24.220;2023-01-01T05:35:53;99296.72;;;4.37;97.98
55066;BME280;40964;42.114;24.220;2023-01-01T05:38:19;99301.22;;;4.44;97.63
55066;BME280;40964;42.114;24.220;2023-01-01T05:40:44;99304.25;;;4.40;97.50
55066;BME280;40964;42.114;24.220;2023-01-01T05:43:09;99311.38;;;4.38;96.66
55066;BME280;40964;42.114;24.220;2023-01-01T05:45:35;99304.00;;;4.33;96.98
55066;BME280;40964;42.114;24.220;2023-01-01T05:48:00;99307.56;;;4.32;95.93
55066;BME280;40964;42.114;24.220;2023-01-01T05:50:27;99311.69;;;4.25;95.91
55066;BME280;40964;42.114;24.220;2023-01-01T05:52:52;99309.63;;;4.19;96.39
55066;BME280;40964;42.114;24.220;2023-01-01T05:55:18;99308.53;;;4.12;96.61
55066;BME280;40964;42.114;24.220;2023-01-01T05:57:43;99310.88;;;4.15;96.97
55066;BME280;40964;42.114;24.220;2023-01-01T06:00:09;99297.28;;;4.11;97.71
55066;BME280;40964;42.114;24.220;2023-01-01T06:02:35;99298.81;;;4.14;99.27
55066;BME280;40964;42.114;24.220;2023-01-01T06:05:00;99301.66;;;4.20;99.23
55066;BME280;40964;42.114;24.220;2023-01-01T06:07:25;99306.34;;;4.26;99.04
55066;BME280;40964;42.114;24.220;2023-01-01T06:09:51;99295.47;;;4.31;99.01
55066;BME280;40964;42.114;24.220;2023-01-01T06:12:16;99294.13;;;4.27;98.35
55066;BME280;40964;42.114;24.220;2023-01-01T06:14:42;99304.00;;;4.33;97.54
55066;BME280;40964;42.114;24.220;2023-01-01T06:17:07;99303.03;;;4.34;97.70
55066;BME280;40964;42.114;24.220;2023-01-01T06:19:33;99302.06;;;4.35;97.81
55066;BME280;40964;42.114;24.220;2023-01-01T06:21:58;99297.25;;;4.40;97.26
55066;BME280;40964;42.114;24.220;2023-01-01T06:24:24;99300.56;;;4.42;97.64
55066;BME280;40964;42.114;24.220;2023-01-01T06:26:49;99305.91;;;4.50;97.35
55066;BME280;40964;42.114;24.220;2023-01-01T06:29:14;99297.78;;;4.53;96.66
55066;BME280;40964;42.114;24.220;2023-01-01T06:31:40;99297.94;;;4.52;96.27
55066;BME280;40964;42.114;24.220;2023-01-01T06:34:05;99309.56;;;4.57;96.43
55066;BME280;40964;42.114;24.220;2023-01-01T06:36:31;99311.47;;;4.65;95.90
55066;BME280;40964;42.114;24.220;2023-01-01T06:38:57;99312.13;;;4.67;96.65
55066;BME280;40964;42.114;24.220;2023-01-01T06:41:28;99312.41;;;4.74;96.35
55066;BME280;40964;42.114;24.220;2023-01-01T06:43:57;99307.25;;;4.92;96.49
55066;BME280;40964;42.114;24.220;2023-01-01T06:46:34;99317.81;;;5.00;96.18
55066;BME280;40964;42.114;24.220;2023-01-01T06:49:09;99323.66;;;5.11;95.45
55066;BME280;40964;42.114;24.220;2023-01-01T06:51:40;99317.88;;;5.18;94.95
55066;BME280;40964;42.114;24.220;2023-01-01T06:54:07;99316.34;;;5.25;94.18
55066;BME280;40964;42.114;24.220;2023-01-01T06:56:33;99326.31;;;5.29;94.18
55066;BME280;40964;42.114;24.220;2023-01-01T06:59:00;99324.53;;;5.30;94.26
55066;BME280;40964;42.114;24.220;2023-01-01T07:01:28;99329.84;;;5.38;93.76
55066;BME280;40964;42.114;24.220;2023-01-01T07:03:56;99333.09;;;5.50;93.70
55066;BME280;40964;42.114;24.220;2023-01-01T07:06:22;99336.53;;;5.50;97.22
55066;BME280;40964;42.114;24.220;2023-01-01T07:08:48;99342.66;;;5.31;97.88
55066;BME280;40964;42.114;24.220;2023-01-01T07:11:14;99340.56;;;5.35;97.94
55066;BME280;40964;42.114;24.220;2023-01-01T07:13:40;99345.91;;;5.43;96.68
55066;BME280;40964;42.114;24.220;2023-01-01T07:16:06;99333.91;;;5.50;97.02
55066;BME280;40964;42.114;24.220;2023-01-01T07:18:31;99337.50;;;5.49;96.51
55066;BME280;40964;42.114;24.220;2023-01-01T07:21:01;99344.44;;;5.58;96.41
55066;BME280;40964;42.114;24.220;2023-01-01T07:23:29;99328.09;;;5.56;95.64
55066;BME280;40964;42.114;24.220;2023-01-01T07:25:56;99341.97;;;5.75;95.05
55066;BME280;40964;42.114;24.220;2023-01-01T07:28:23;99343.72;;;5.84;94.18
55066;BME280;40964;42.114;24.220;2023-01-01T07:30:49;99338.59;;;5.92;93.32
55066;BME280;40964;42.114;24.220;2023-01-01T07:33:17;99337.88;;;6.00;92.69
55066;BME280;40964;42.114;24.220;2023-01-01T07:35:43;99345.78;;;6.08;91.66
55066;BME280;40964;42.114;24.220;2023-01-01T07:38:13;99339.81;;;6.15;91.18
55066;BME280;40964;42.114;24.220;2023-01-01T07:40:39;99346.09;;;6.22;90.79
55066;BME280;40964;42.114;24.220;2023-01-01T07:43:05;99351.38;;;6.31;90.79
55066;BME280;40964;42.114;24.220;2023-01-01T07:45:31;99355.97;;;6.37;90.50
55066;BME280;40964;42.114;24.220;2023-01-01T07:47:58;99360.22;;;6.38;93.64
55066;BME280;40964;42.114;24.220;2023-01-01T07:50:25;99366.00;;;6.41;94.17
55066;BME280;40964;42.114;24.220;2023-01-01T07:52:51;99360.84;;;6.49;94.18
55066;BME280;40964;42.114;24.220;2023-01-01T07:55:18;99379.34;;;6.56;94.33
55066;BME280;40964;42.114;24.220;2023-01-01T07:57:44;99371.78;;;6.53;94.25
55066;BME280;40964;42.114;24.220;2023-01-01T08:00:12;99381.66;;;6.59;92.89
55066;BME280;40964;42.114;24.220;2023-01-01T08:02:38;99385.44;;;6.65;91.54
55066;BME280;40964;42.114;24.220;2023-01-01T08:05:04;99388.00;;;6.74;90.23
55066;BME280;40964;42.114;24.220;2023-01-01T08:07:30;99376.06;;;6.80;89.73
55066;BME280;40964;42.114;24.220;2023-01-01T08:09:55;99385.84;;;6.96;88.08
55066;BME280;40964;42.114;24.220;2023-01-01T08:12:21;99385.06;;;7.03;87.64
55066;BME280;40964;42.114;24.220;2023-01-01T08:14:46;99391.16;;;7.12;87.78
55066;BME280;40964;42.114;24.220;2023-01-01T08:17:12;99395.00;;;7.26;87.27
55066;BME280;40964;42.114;24.220;2023-01-01T08:19:37;99393.56;;;7.31;85.90
55066;BME280;40964;42.114;24.220;2023-01-01T08:22:03;99392.56;;;7.32;84.87
55066;BME280;40964;42.114;24.220;2023-01-01T08:24:28;99395.06;;;7.42;84.83
55066;BME280;40964;42.114;24.220;2023-01-01T08:26:54;99402.34;;;7.56;85.10
55066;BME280;40964;42.114;24.220;2023-01-01T08:29:19;99396.28;;;7.56;85.71
55066;BME280;40964;42.114;24.220;2023-01-01T08:31:45;99390.13;;;7.65;83.85
55066;BME280;40964;42.114;24.220;2023-01-01T08:34:10;99397.84;;;7.75;83.01
55066;BME280;40964;42.114;24.220;2023-01-01T08:36:36;99392.47;;;7.84;82.59
55066;BME280;40964;42.114;24.220;2023-01-01T08:39:05;99385.59;;;8.00;81.76
55066;BME280;40964;42.114;24.220;2023-01-01T08:41:30;99379.91;;;8.12;81.87
55066;BME280;40964;42.114;24.220;2023-01-01T08:43:56;99383.03;;;8.24;81.05
55066;BME280;40964;42.114;24.220;2023-01-01T08:46:21;99378.81;;;8.39;80.92
55066;BME280;40964;42.114;24.220;2023-01-01T08:48:47;99372.94;;;8.45;79.42
55066;BME280;40964;42.114;24.220;2023-01-01T08:51:12;99370.63;;;8.59;79.47
55066;BME280;40964;42.114;24.220;2023-01-01T08:53:37;99368.19;;;8.65;78.71
55066;BME280;40964;42.114;24.220;2023-01-01T08:56:05;99369.47;;;8.77;77.74
55066;BME280;40964;42.114;24.220;2023-01-01T08:58:33;99363.72;;;8.82;76.92
55066;BME280;40964;42.114;24.220;2023-01-01T09:00:59;99364.84;;;8.96;77.69
55066;BME280;40964;42.114;24.220;2023-01-01T09:03:25;99351.34;;;9.07;76.87
55066;BME280;40964;42.114;24.220;2023-01-01T09:05:51;99356.56;;;9.23;76.64
55066;BME280;40964;42.114;24.220;2023-01-01T09:08:16;99349.47;;;9.32;74.83
55066;BME280;40964;42.114;24.220;2023-01-01T09:10:43;99345.84;;;9.41;74.38
55066;BME280;40964;42.114;24.220;2023-01-01T09:13:10;99335.44;;;9.56;73.17
55066;BME280;40964;42.114;24.220;2023-01-01T09:15:36;99343.91;;;9.66;72.30
55066;BME280;40964;42.114;24.220;2023-01-01T09:18:01;99339.41;;;9.83;72.26
55066;BME280;40964;42.114;24.220;2023-01-01T09:20:27;99339.94;;;10.01;71.32
55066;BME280;40964;42.114;24.220;2023-01-01T09:22:52;99339.53;;;10.12;70.56
55066;BME280;40964;42.114;24.220;2023-01-01T09:25:18;99328.19;;;10.12;68.69
55066;BME280;40964;42.114;24.220;2023-01-01T09:27:43;99331.91;;;10.26;71.98
55066;BME280;40964;42.114;24.220;2023-01-01T09:30:09;99334.38;;;10.27;74.74
55066;BME280;40964;42.114;24.220;2023-01-01T09:32:35;99325.28;;;10.30;74.05
55066;BME280;40964;42.114;24.220;2023-01-01T09:35:00;99322.25;;;10.41;71.87
55066;BME280;40964;42.114;24.220;2023-01-01T09:37:26;99319.19;;;10.52;73.59
55066;BME280;40964;42.114;24.220;2023-01-01T09:39:52;99320.41;;;10.64;72.88
55066;BME280;40964;42.114;24.220;2023-01-01T09:42:22;99314.69;;;10.75;70.05
55066;BME280;40964;42.114;24.220;2023-01-01T09:48:01;99308.53;;;10.83;67.28
55066;BME280;40964;42.114;24.220;2023-01-01T09:50:34;99301.72;;;11.03;67.98
55066;BME280;40964;42.114;24.220;2023-01-01T09:53:05;99301.19;;;11.08;65.75
55066;BME280;40964;42.114;24.220;2023-01-01T09:55:52;99307.50;;;11.28;66.12
55066;BME280;40964;42.114;24.220;2023-01-01T09:58:22;99294.63;;;11.33;66.76
55066;BME280;40964;42.114;24.220;2023-01-01T10:00:52;99298.22;;;11.47;67.22
55066;BME280;40964;42.114;24.220;2023-01-01T10:06:21;99299.75;;;11.56;66.18
55066;BME280;40964;42.114;24.220;2023-01-01T10:09:45;99295.75;;;11.60;67.54
55066;BME280;40964;42.114;24.220;2023-01-01T10:12:09;99293.81;;;11.69;66.85
55066;BME280;40964;42.114;24.220;2023-01-01T10:14:36;99296.69;;;11.74;65.85
55066;BME280;40964;42.114;24.220;2023-01-01T10:17:31;99292.53;;;11.80;65.22
55066;BME280;40964;42.114;24.220;2023-01-01T10:19:57;99292.66;;;11.93;66.18
55066;BME280;40964;42.114;24.220;2023-01-01T10:22:46;99287.44;;;12.00;66.44
55066;BME280;40964;42.114;24.220;2023-01-01T10:25:22;99284.31;;;12.11;65.75
55066;BME280;40964;42.114;24.220;2023-01-01T10:27:52;99279.97;;;12.03;64.43
55066;BME280;40964;42.114;24.220;2023-01-01T10:30:22;99281.31;;;12.14;65.34
55066;BME280;40964;42.114;24.220;2023-01-01T10:32:52;99277.41;;;12.10;64.50
55066;BME280;40964;42.114;24.220;2023-01-01T10:35:35;99278.16;;;12.25;64.82
55066;BME280;40964;42.114;24.220;2023-01-01T10:38:03;99276.06;;;12.20;64.41
55066;BME280;40964;42.114;24.220;2023-01-01T10:40:29;99284.44;;;12.24;63.92
55066;BME280;40964;42.114;24.220;2023-01-01T10:42:57;99273.06;;;12.24;64.89
55066;BME280;40964;42.114;24.220;2023-01-01T10:48:19;99270.59;;;12.22;64.55
55066;BME280;40964;42.114;24.220;2023-01-01T10:53:37;99270.19;;;12.46;64.20
55066;BME280;40964;42.114;24.220;2023-01-01T10:56:07;99267.78;;;12.52;63.99
55066;BME280;40964;42.114;24.220;2023-01-01T10:58:48;99273.94;;;12.59;63.23
55066;BME280;40964;42.114;24.220;2023-01-01T11:04:19;99261.78;;;12.99;63.93
55066;BME280;40964;42.114;24.220;2023-01-01T11:06:46;99258.47;;;13.25;63.33
55066;BME280;40964;42.114;24.220;2023-01-01T11:09:23;99250.00;;;13.43;63.48
55066;BME280;40964;42.114;24.220;2023-01-01T11:11:56;99254.72;;;13.60;62.00
55066;BME280;40964;42.114;24.220;2023-01-01T11:14:28;99252.91;;;13.68;61.08
55066;BME280;40964;42.114;24.220;2023-01-01T11:16:57;99252.09;;;13.74;59.54
55066;BME280;40964;42.114;24.220;2023-01-01T11:19:27;99233.00;;;13.78;59.18
55066;BME280;40964;42.114;24.220;2023-01-01T11:21:53;99239.72;;;13.81;58.46
55066;BME280;40964;42.114;24.220;2023-01-01T11:24:22;99234.63;;;13.86;58.42
55066;BME280;40964;42.114;24.220;2023-01-01T11:26:49;99233.22;;;13.90;58.96
55066;BME280;40964;42.114;24.220;2023-01-01T11:31:41;99231.19;;;13.85;57.62
55066;BME280;40964;42.114;24.220;2023-01-01T11:37:27;99210.44;;;13.76;57.39
55066;BME280;40964;42.114;24.220;2023-01-01T11:39:52;99203.69;;;13.73;57.33
55066;BME280;40964;42.114;24.220;2023-01-01T11:42:24;99218.94;;;13.71;57.70
55066;BME280;40964;42.114;24.220;2023-01-01T11:44:59;99205.53;;;13.73;57.73
55066;BME280;40964;42.114;24.220;2023-01-01T11:55:53;99195.78;;;13.86;57.39
55066;BME280;40964;42.114;24.220;2023-01-01T12:01:04;99197.22;;;13.96;57.39
55066;BME280;40964;42.114;24.220;2023-01-01T12:03:41;99190.28;;;14.01;57.12
55066;BME280;40964;42.114;24.220;2023-01-01T12:06:22;99178.50;;;14.04;57.29
55066;BME280;40964;42.114;24.220;2023-01-01T12:09:10;99179.50;;;14.03;57.26
55066;BME280;40964;42.114;24.220;2023-01-01T12:11:49;99173.38;;;14.22;56.28
55066;BME280;40964;42.114;24.220;2023-01-01T12:14:41;99174.41;;;14.08;56.36
55066;BME280;40964;42.114;24.220;2023-01-01T12:17:23;99172.56;;;14.22;56.78
55066;BME280;40964;42.114;24.220;2023-01-01T12:20:09;99178.03;;;14.27;57.32
55066;BME280;40964;42.114;24.220;2023-01-01T12:22:37;99174.38;;;14.28;57.76
55066;BME280;40964;42.114;24.220;2023-01-01T12:25:03;99173.13;;;14.37;56.39
55066;BME280;40964;42.114;24.220;2023-01-01T12:30:36;99172.56;;;14.48;55.02
55066;BME280;40964;42.114;24.220;2023-01-01T12:33:22;99173.16;;;14.57;54.55
55066;BME280;40964;42.114;24.220;2023-01-01T12:36:23;99173.53;;;14.54;53.85
55066;BME280;40964;42.114;24.220;2023-01-01T12:42:23;99179.63;;;14.61;54.37
55066;BME280;40964;42.114;24.220;2023-01-01T12:58:15;99166.78;;;15.16;53.79
55066;BME280;40964;42.114;24.220;2023-01-01T13:00:58;99163.91;;;15.17;53.64
55066;BME280;40964;42.114;24.220;2023-01-01T13:03:29;99151.72;;;15.10;52.90
55066;BME280;40964;42.114;24.220;2023-01-01T13:05:58;99167.47;;;14.98;53.66
55066;BME280;40964;42.114;24.220;2023-01-01T13:08:25;99169.56;;;14.89;53.29
55066;BME280;40964;42.114;24.220;2023-01-01T13:10:54;99167.34;;;14.80;54.01
55066;BME280;40964;42.114;24.220;2023-01-01T13:13:20;99163.06;;;14.79;54.31
55066;BME280;40964;42.114;24.220;2023-01-01T13:15:51;99165.34;;;14.75;54.93
55066;BME280;40964;42.114;24.220;2023-01-01T13:23:43;99170.06;;;14.66;55.47
55066;BME280;40964;42.114;24.220;2023-01-01T13:45:30;99189.88;;;14.11;60.50
55066;BME280;40964;42.114;24.220;2023-01-01T14:12:49;99208.75;;;11.97;67.50
55066;BME280;40964;42.114;24.220;2023-01-01T14:17:52;99224.16;;;11.78;68.50
55066;BME280;40964;42.114;24.220;2023-01-01T14:20:21;99224.91;;;11.72;68.18
55066;BME280;40964;42.114;24.220;2023-01-01T14:22:49;99217.25;;;11.56;68.76
55066;BME280;40964;42.114;24.220;2023-01-01T14:25:24;99224.75;;;11.59;68.87
55066;BME280;40964;42.114;24.220;2023-01-01T14:27:53;99221.81;;;11.47;69.12
55066;BME280;40964;42.114;24.220;2023-01-01T14:30:19;99224.13;;;11.35;69.42
55066;BME280;40964;42.114;24.220;2023-01-01T14:32:45;99226.97;;;11.19;69.84
55066;BME280;40964;42.114;24.220;2023-01-01T14:35:14;99234.34;;;11.09;70.96
55066;BME280;40964;42.114;24.220;2023-01-01T14:37:40;99227.47;;;10.93;71.50
55066;BME280;40964;42.114;24.220;2023-01-01T14:40:20;99218.94;;;10.76;72.01
55066;BME280;40964;42.114;24.220;2023-01-01T14:43:04;99219.13;;;10.60;72.48
55066;BME280;40964;42.114;24.220;2023-01-01T14:45:33;99230.91;;;10.49;73.41
55066;BME280;40964;42.114;24.220;2023-01-01T14:48:00;99219.94;;;10.31;73.89
55066;BME280;40964;42.114;24.220;2023-01-01T14:50:28;99227.56;;;10.26;74.31
55066;BME280;40964;42.114;24.220;2023-01-01T14:53:10;99224.97;;;10.18;74.68
55066;BME280;40964;42.114;24.220;2023-01-01T14:55:39;99225.41;;;10.07;75.24
55066;BME280;40964;42.114;24.220;2023-01-01T14:58:11;99228.97;;;9.91;75.67
55066;BME280;40964;42.114;24.220;2023-01-01T15:00:37;99225.41;;;9.84;75.92
55066;BME280;40964;42.114;24.220;2023-01-01T15:03:12;99219.94;;;9.71;76.34
55066;BME280;40964;42.114;24.220;2023-01-01T15:05:38;99228.78;;;9.70;76.44
55066;BME280;40964;42.114;24.220;2023-01-01T15:08:06;99228.34;;;9.66;76.31
55066;BME280;40964;42.114;24.220;2023-01-01T15:10:41;99224.44;;;9.62;76.75
55066;BME280;40964;42.114;24.220;2023-01-01T15:13:07;99236.09;;;9.59;76.71
55066;BME280;40964;42.114;24.220;2023-01-01T15:15:47;99226.31;;;9.53;77.10
55066;BME280;40964;42.114;24.220;2023-01-01T15:21:10;99224.28;;;9.32;78.13
55066;BME280;40964;42.114;24.220;2023-01-01T15:23:37;99235.00;;;9.23;78.29
55066;BME280;40964;42.114;24.220;2023-01-01T15:26:07;99228.28;;;9.20;78.48
55066;BME280;40964;42.114;24.220;2023-01-01T15:28:34;99235.56;;;9.10;78.98
55066;BME280;40964;42.114;24.220;2023-01-01T15:31:00;99230.19;;;9.03;79.65
55066;BME280;40964;42.114;24.220;2023-01-01T15:33:26;99227.94;;;8.92;79.42
55066;BME280;40964;42.114;24.220;2023-01-01T15:35:52;99234.81;;;8.93;79.74
55066;BME280;40964;42.114;24.220;2023-01-01T15:38:27;99240.41;;;8.90;80.08
55066;BME280;40964;42.114;24.220;2023-01-01T15:40:58;99238.94;;;8.88;79.97